createdAt,value
2018-06-20T00:02:46.766Z,35.00
2018-06-20T00:08:53.759Z,26.07
2018-06-20T00:14:59.586Z,23.90
2018-06-20T00:21:05.478Z,23.50
2018-06-20T00:27:11.200Z,24.23
2018-06-20T00:33:16.908Z,25.27
2018-06-20T00:39:23.028Z,24.97
2018-06-20T00:45:28.793Z,23.60
2018-06-20T00:51:34.518Z,28.23
2018-06-20T00:57:40.184Z,24.60
2018-06-20T01:03:46.097Z,21.50
2018-06-20T01:09:52.023Z,25.43
2018-06-20T01:15:57.925Z,27.03
2018-06-20T01:22:03.654Z,26.13
2018-06-20T01:28:09.546Z,28.80
2018-06-20T01:34:15.283Z,28.17
2018-06-20T01:40:21.156Z,27.00
2018-06-20T01:46:27.044Z,31.90
2018-06-20T01:52:32.733Z,33.17
2018-06-20T01:58:38.424Z,38.73
2018-06-20T02:04:44.463Z,39.27
2018-06-20T02:10:50.615Z,37.97
2018-06-20T02:16:56.413Z,42.23
2018-06-20T02:23:02.079Z,38.57
2018-06-20T02:29:07.735Z,38.97
2018-06-20T02:35:13.760Z,40.50
2018-06-20T02:41:20.340Z,35.53
2018-06-20T02:47:31.573Z,38.13
2018-06-20T02:53:37.215Z,28.53
2018-06-20T02:59:43.009Z,35.80
2018-06-20T03:05:48.746Z,31.07
2018-06-20T03:11:55.184Z,22.83
2018-06-20T03:18:00.868Z,27.37
2018-06-20T03:24:06.932Z,23.33
2018-06-20T03:30:12.815Z,29.07
2018-06-20T03:36:18.455Z,25.10
2018-06-20T03:42:25.083Z,21.77
2018-06-20T03:48:30.733Z,26.73
2018-06-20T03:54:36.651Z,24.60
2018-06-20T04:00:42.414Z,22.57
2018-06-20T04:06:48.033Z,21.27
2018-06-20T04:12:54.858Z,26.90
2018-06-20T04:19:00.606Z,24.20
2018-06-20T04:25:06.346Z,29.97
2018-06-20T04:31:12.134Z,27.37
2018-06-20T04:37:18.153Z,25.50
2018-06-20T04:43:24.756Z,26.53
2018-06-20T04:49:30.820Z,20.27
2018-06-20T04:55:37.044Z,23.97
2018-06-20T05:01:42.450Z,21.90
2018-06-20T05:07:47.956Z,25.07
2018-06-20T05:13:53.847Z,25.93
2018-06-20T05:19:59.639Z,21.03
2018-06-20T05:26:05.451Z,20.33
2018-06-20T05:32:11.133Z,23.90
2018-06-20T05:38:17.272Z,19.00
2018-06-20T05:44:23.986Z,23.93
2018-06-20T05:50:30.339Z,18.30
2018-06-20T05:56:36.280Z,21.23
2018-06-20T06:02:42.030Z,16.80
2018-06-20T06:08:47.771Z,19.70
2018-06-20T06:14:53.748Z,19.80
2018-06-20T06:20:59.426Z,21.90
2018-06-20T06:27:05.178Z,18.50
2018-06-20T06:33:10.955Z,20.70
2018-06-20T06:39:16.639Z,17.90
2018-06-20T06:45:23.323Z,19.40
2018-06-20T06:51:29.083Z,24.33
2018-06-20T06:57:34.707Z,23.57
2018-06-20T07:03:40.325Z,22.80
2018-06-20T07:09:46.509Z,23.10
2018-06-20T07:15:53.768Z,25.03
2018-06-20T07:21:59.411Z,23.73
2018-06-20T07:28:05.184Z,26.30
2018-06-20T07:34:10.971Z,27.03
2018-06-20T07:40:16.604Z,24.63
2018-06-20T07:46:22.860Z,29.47
2018-06-20T07:52:29.279Z,25.63
2018-06-20T07:58:40.147Z,26.53
2018-06-20T08:04:51.198Z,30.97
2018-06-20T08:11:02.136Z,26.30
2018-06-20T08:17:13.261Z,23.77
2018-06-20T08:23:19.677Z,25.30
2018-06-20T08:29:25.855Z,21.17
2018-06-20T08:35:34.482Z,25.17
2018-06-20T08:41:40.127Z,21.57
2018-06-20T08:47:45.787Z,22.40
2018-06-20T08:53:52.337Z,17.67
2018-06-20T08:59:57.990Z,20.10
2018-06-20T09:06:08.853Z,16.10
2018-06-20T09:12:20.609Z,18.87
2018-06-20T09:18:31.968Z,14.70
2018-06-20T09:24:37.616Z,14.47
2018-06-20T09:30:43.273Z,18.60
2018-06-20T09:36:48.964Z,21.03
2018-06-20T09:42:55.280Z,13.23
2018-06-20T09:49:00.948Z,15.40
2018-06-20T09:55:06.612Z,11.70
2018-06-20T10:02:19.303Z,14.03
2018-06-20T10:08:30.590Z,9.40
2018-06-20T10:14:36.675Z,5.70
2018-06-20T10:20:42.615Z,7.53
2018-06-20T10:26:48.327Z,5.90
2018-06-20T10:32:54.562Z,7.90
2018-06-20T10:39:00.248Z,8.33
2018-06-20T10:45:11.207Z,8.50
2018-06-20T10:51:16.973Z,9.80
2018-06-20T10:57:27.764Z,6.00
2018-06-20T11:03:38.619Z,11.20
2018-06-20T11:09:49.575Z,8.47
2018-06-20T11:15:55.393Z,5.93
2018-06-20T11:22:01.099Z,9.43
2018-06-20T11:28:14.829Z,6.50
2018-06-20T11:34:20.612Z,6.23
2018-06-20T11:40:26.308Z,7.47
2018-06-20T11:46:37.289Z,6.97
2018-06-20T11:52:48.317Z,13.60
2018-06-20T11:59:00.139Z,9.97
2018-06-20T12:05:11.303Z,6.33
2018-06-20T12:11:22.237Z,5.80
2018-06-20T12:17:33.337Z,6.77
2018-06-20T12:23:44.287Z,8.17
2018-06-20T12:29:55.185Z,6.83
2018-06-20T12:36:06.087Z,6.23
2018-06-20T12:42:17.205Z,13.00
2018-06-20T12:48:23.096Z,9.70
2018-06-20T12:54:28.956Z,8.00
2018-06-20T13:00:34.762Z,7.47
2018-06-20T13:06:40.432Z,8.40
2018-06-20T13:12:46.105Z,6.20
2018-06-20T13:18:59.784Z,7.10
2018-06-20T13:25:05.773Z,9.13
2018-06-20T13:31:16.597Z,9.37
2018-06-20T13:37:27.683Z,7.37
2018-06-20T13:43:38.439Z,9.00
2018-06-20T13:49:44.776Z,8.40
2018-06-20T13:55:50.646Z,6.90
2018-06-20T14:01:56.927Z,6.73
2018-06-20T14:08:02.668Z,6.73
2018-06-20T14:14:08.783Z,6.67
2018-06-20T14:20:19.862Z,5.23
2018-06-20T14:26:34.806Z,5.63
2018-06-20T14:32:45.678Z,7.20
2018-06-20T14:38:57.163Z,4.40
2018-06-20T14:45:07.937Z,5.90
2018-06-20T14:51:14.217Z,5.50
2018-06-20T14:57:21.282Z,4.30
2018-06-20T15:03:27.159Z,3.53
2018-06-20T15:09:33.011Z,5.20
2018-06-20T15:15:38.651Z,8.93
2018-06-20T15:21:44.255Z,6.40
2018-06-20T15:27:55.301Z,5.57
2018-06-20T15:34:06.263Z,3.10
2018-06-20T15:40:12.785Z,3.00
2018-06-20T15:46:18.548Z,5.90
2018-06-20T15:52:24.975Z,10.00
2018-06-20T15:58:30.806Z,3.00
2018-06-20T16:04:36.537Z,3.47
2018-06-20T16:10:42.726Z,3.80
2018-06-20T16:16:48.560Z,2.90
2018-06-20T16:23:00.147Z,4.47
2018-06-20T16:29:10.959Z,2.77
2018-06-20T16:35:16.596Z,3.30
2018-06-20T16:41:24.184Z,4.23
2018-06-20T16:47:29.954Z,4.83
2018-06-20T16:53:35.619Z,5.10
2018-06-20T16:59:41.915Z,2.47
2018-06-20T17:05:47.683Z,2.63
2018-06-20T17:11:59.773Z,2.77
2018-06-20T17:18:11.157Z,2.60
2018-06-20T17:24:21.893Z,4.83
2018-06-20T17:30:28.076Z,3.43
2018-06-20T17:36:33.834Z,3.33
2018-06-20T17:42:40.302Z,4.73
2018-06-20T17:48:46.076Z,2.77
2018-06-20T17:54:53.430Z,2.80
2018-06-20T18:01:04.117Z,3.63
2018-06-20T18:07:15.041Z,2.83
2018-06-20T18:13:24.824Z,3.93
2018-06-20T18:19:30.535Z,3.60
2018-06-20T18:25:36.208Z,3.07
2018-06-20T18:31:41.832Z,3.93
2018-06-20T18:37:47.881Z,4.70
2018-06-20T18:43:55.209Z,9.20
2018-06-20T18:50:00.823Z,2.73
2018-06-20T18:56:06.877Z,3.13
2018-06-20T19:02:17.718Z,4.17
2018-06-20T19:08:28.787Z,5.43
2018-06-20T19:14:34.582Z,2.47
2018-06-20T19:20:40.228Z,6.10
2018-06-20T19:26:45.889Z,2.90
2018-06-20T19:32:51.639Z,2.57
2018-06-20T19:38:57.555Z,4.40
2018-06-20T19:45:03.612Z,2.83
2018-06-20T19:51:09.267Z,3.73
2018-06-20T19:57:14.994Z,3.50
2018-06-20T20:03:20.685Z,2.77
2018-06-20T20:09:26.531Z,5.37
2018-06-20T20:15:32.196Z,2.40
2018-06-20T20:21:37.987Z,2.40
2018-06-20T20:27:43.789Z,2.80
2018-06-20T20:33:49.787Z,3.00
2018-06-20T20:39:55.991Z,4.40
2018-06-20T20:46:01.697Z,4.33
2018-06-20T20:52:07.679Z,2.73
2018-06-20T20:58:13.305Z,3.93
2018-06-20T21:04:19.026Z,3.93
2018-06-20T21:10:24.848Z,7.20
2018-06-20T21:16:30.895Z,2.60
2018-06-20T21:22:36.620Z,3.50
2018-06-20T21:28:42.342Z,6.90
2018-06-20T21:34:48.118Z,4.33
2018-06-20T21:40:54.496Z,3.80
2018-06-20T21:47:00.252Z,7.53
2018-06-20T21:53:05.952Z,3.50
2018-06-20T21:59:11.693Z,3.90
2018-06-20T22:05:17.344Z,5.00
2018-06-20T22:11:23.943Z,3.90
2018-06-20T22:17:29.925Z,5.73
2018-06-20T22:23:35.656Z,5.53
2018-06-20T22:29:41.599Z,3.40
2018-06-20T22:35:47.384Z,4.13
2018-06-20T22:41:53.449Z,4.30
2018-06-20T22:47:59.136Z,3.70
2018-06-20T22:54:04.844Z,8.60
2018-06-20T23:00:10.654Z,4.57
2018-06-20T23:06:16.118Z,5.03
2018-06-20T23:12:22.057Z,5.50
2018-06-20T23:18:27.805Z,3.63
2018-06-20T23:24:33.482Z,5.17
2018-06-20T23:30:39.212Z,5.37
2018-06-20T23:36:44.987Z,4.50
2018-06-20T23:42:51.078Z,6.40
2018-06-20T23:48:57.024Z,4.33
2018-06-20T23:55:02.690Z,5.07
